sensor_id;sensor_type;location;lat;lon;timestamp;temperature;humidity
52867;DHT22;38739;53.324;6.862;2023-09-12T00:25:07;19.90;99.90
52867;DHT22;38739;53.324;6.862;2023-09-12T00:27:32;19.80;99.90
52867;DHT22;38739;53.324;6.862;2023-09-12T00:29:58;19.90;99.90
52867;DHT22;38739;53.324;6.862;2023-09-12T00:32:24;19.80;99.90
52867;DHT22;38739;53.324;6.862;2023-09-12T00:34:49;19.80;99.90
52867;DHT22;38739;53.324;6.862;2023-09-12T00:37:15;19.80;99.90
52867;DHT22;38739;53.324;6.862;2023-09-12T00:39:41;19.80;99.90
52867;DHT22;38739;53.324;6.862;2023-09-12T00:42:06;19.80;99.90
52867;DHT22;38739;53.324;6.862;2023-09-12T00:44:33;19.80;99.90
52867;DHT22;38739;53.324;6.862;2023-09-12T00:47:00;19.80;99.90
52867;DHT22;38739;53.324;6.862;2023-09-12T00:49:27;19.80;99.90
52867;DHT22;38739;53.324;6.862;2023-09-12T00:51:54;19.70;99.90
52867;DHT22;38739;53.324;6.862;2023-09-12T00:54:22;19.80;99.90
52867;DHT22;38739;53.324;6.862;2023-09-12T00:56:48;19.80;99.90
52867;DHT22;38739;53.324;6.862;2023-09-12T00:59:15;19.70;99.90
52867;DHT22;38739;53.324;6.862;2023-09-12T01:01:42;19.70;99.90
52867;DHT22;38739;53.324;6.862;2023-09-12T01:04:09;19.70;99.90
52867;DHT22;38739;53.324;6.862;2023-09-12T01:06:35;19.70;99.90
52867;DHT22;38739;53.324;6.862;2023-09-12T01:09:01;19.70;99.90
52867;DHT22;38739;53.324;6.862;2023-09-12T01:11:28;19.70;99.90
52867;DHT22;38739;53.324;6.862;2023-09-12T01:13:54;19.60;99.90
52867;DHT22;38739;53.324;6.862;2023-09-12T01:16:19;19.60;99.90
52867;DHT22;38739;53.324;6.862;2023-09-12T01:18:45;19.70;99.90
52867;DHT22;38739;53.324;6.862;2023-09-12T01:29:49;19.70;99.90
52867;DHT22;38739;53.324;6.862;2023-09-12T01:32:18;19.60;99.90
52867;DHT22;38739;53.324;6.862;2023-09-12T01:34:45;19.70;99.90
52867;DHT22;38739;53.324;6.862;2023-09-12T01:37:10;19.60;99.90
52867;DHT22;38739;53.324;6.862;2023-09-12T01:39:36;19.60;99.90
52867;DHT22;38739;53.324;6.862;2023-09-12T01:42:02;19.60;99.90
52867;DHT22;38739;53.324;6.862;2023-09-12T01:44:29;19.60;99.90
52867;DHT22;38739;53.324;6.862;2023-09-12T01:46:59;19.50;99.90
52867;DHT22;38739;53.324;6.862;2023-09-12T01:49:27;19.50;99.90
52867;DHT22;38739;53.324;6.862;2023-09-12T01:51:53;19.50;99.90
52867;DHT22;38739;53.324;6.862;2023-09-12T01:54:20;19.50;99.90
52867;DHT22;38739;53.324;6.862;2023-09-12T01:56:47;19.50;99.90
52867;DHT22;38739;53.324;6.862;2023-09-12T01:59:13;19.50;99.90
52867;DHT22;38739;53.324;6.862;2023-09-12T02:01:39;19.40;99.90
52867;DHT22;38739;53.324;6.862;2023-09-12T02:04:05;19.50;99.90
52867;DHT22;38739;53.324;6.862;2023-09-12T02:06:34;19.40;99.90
52867;DHT22;38739;53.324;6.862;2023-09-12T02:09:00;19.40;99.90
52867;DHT22;38739;53.324;6.862;2023-09-12T02:11:27;19.50;99.90
52867;DHT22;38739;53.324;6.862;2023-09-12T02:13:52;19.40;99.90
52867;DHT22;38739;53.324;6.862;2023-09-12T02:16:18;19.40;99.90
52867;DHT22;38739;53.324;6.862;2023-09-12T02:18:44;19.40;99.90
52867;DHT22;38739;53.324;6.862;2023-09-12T02:21:09;19.40;99.90
52867;DHT22;38739;53.324;6.862;2023-09-12T02:23:35;19.30;99.90
52867;DHT22;38739;53.324;6.862;2023-09-12T02:26:01;19.30;99.90
52867;DHT22;38739;53.324;6.862;2023-09-12T02:28:27;19.30;99.90
52867;DHT22;38739;53.324;6.862;2023-09-12T02:30:52;19.30;99.90
52867;DHT22;38739;53.324;6.862;2023-09-12T02:33:18;19.30;99.90
52867;DHT22;38739;53.324;6.862;2023-09-12T02:35:44;19.30;99.90
52867;DHT22;38739;53.324;6.862;2023-09-12T02:38:09;19.20;99.90
52867;DHT22;38739;53.324;6.862;2023-09-12T02:40:35;19.20;99.90
52867;DHT22;38739;53.324;6.862;2023-09-12T02:43:01;19.10;99.90
52867;DHT22;38739;53.324;6.862;2023-09-12T02:45:27;19.10;99.90
52867;DHT22;38739;53.324;6.862;2023-09-12T02:47:52;19.00;99.90
52867;DHT22;38739;53.324;6.862;2023-09-12T02:50:18;19.00;99.90
52867;DHT22;38739;53.324;6.862;2023-09-12T02:52:44;19.00;99.90
52867;DHT22;38739;53.324;6.862;2023-09-12T02:55:09;18.90;99.90
52867;DHT22;38739;53.324;6.862;2023-09-12T02:57:36;18.90;99.90
52867;DHT22;38739;53.324;6.862;2023-09-12T03:00:02;18.90;99.90
52867;DHT22;38739;53.324;6.862;2023-09-12T03:02:27;18.90;99.90
52867;DHT22;38739;53.324;6.862;2023-09-12T03:04:54;18.90;99.90
52867;DHT22;38739;53.324;6.862;2023-09-12T03:07:21;18.80;99.90
52867;DHT22;38739;53.324;6.862;2023-09-12T03:09:50;18.80;99.90
52867;DHT22;38739;53.324;6.862;2023-09-12T03:12:16;18.70;99.90
52867;DHT22;38739;53.324;6.862;2023-09-12T03:14:41;18.70;99.90
52867;DHT22;38739;53.324;6.862;2023-09-12T03:17:07;18.70;99.90
52867;DHT22;38739;53.324;6.862;2023-09-12T03:19:33;18.70;99.90
52867;DHT22;38739;53.324;6.862;2023-09-12T03:21:58;18.60;99.90
52867;DHT22;38739;53.324;6.862;2023-09-12T03:24:24;18.60;99.90
52867;DHT22;38739;53.324;6.862;2023-09-12T03:26:51;18.60;99.90
52867;DHT22;38739;53.324;6.862;2023-09-12T03:29:17;18.60;99.90
52867;DHT22;38739;53.324;6.862;2023-09-12T03:31:42;18.60;99.90
52867;DHT22;38739;53.324;6.862;2023-09-12T03:34:08;18.60;99.90
52867;DHT22;38739;53.324;6.862;2023-09-12T03:36:34;18.50;99.90
52867;DHT22;38739;53.324;6.862;2023-09-12T03:38:59;18.50;99.90
52867;DHT22;38739;53.324;6.862;2023-09-12T03:41:25;18.50;99.90
52867;DHT22;38739;53.324;6.862;2023-09-12T03:43:53;18.50;99.90
52867;DHT22;38739;53.324;6.862;2023-09-12T03:46:19;18.50;99.90
52867;DHT22;38739;53.324;6.862;2023-09-12T03:48:44;18.40;99.90
52867;DHT22;38739;53.324;6.862;2023-09-12T03:51:11;18.40;99.90
52867;DHT22;38739;53.324;6.862;2023-09-12T03:53:37;18.40;99.90
52867;DHT22;38739;53.324;6.862;2023-09-12T03:56:03;18.40;99.90
52867;DHT22;38739;53.324;6.862;2023-09-12T03:58:29;18.40;99.90
52867;DHT22;38739;53.324;6.862;2023-09-12T04:00:54;18.40;99.90
52867;DHT22;38739;53.324;6.862;2023-09-12T04:03:20;18.30;99.90
52867;DHT22;38739;53.324;6.862;2023-09-12T04:05:47;18.40;99.90
52867;DHT22;38739;53.324;6.862;2023-09-12T04:08:13;18.40;99.90
52867;DHT22;38739;53.324;6.862;2023-09-12T04:10:39;18.40;99.90
52867;DHT22;38739;53.324;6.862;2023-09-12T04:13:04;18.40;99.90
52867;DHT22;38739;53.324;6.862;2023-09-12T04:15:30;18.50;99.90
52867;DHT22;38739;53.324;6.862;2023-09-12T04:17:56;18.50;99.90
52867;DHT22;38739;53.324;6.862;2023-09-12T04:20:21;18.50;99.90
52867;DHT22;38739;53.324;6.862;2023-09-12T04:22:47;18.50;99.90
52867;DHT22;38739;53.324;6.862;2023-09-12T04:25:13;18.50;99.90
52867;DHT22;38739;53.324;6.862;2023-09-12T04:27:38;18.40;99.90
52867;DHT22;38739;53.324;6.862;2023-09-12T04:30:05;18.40;99.90
52867;DHT22;38739;53.324;6.862;2023-09-12T04:32:31;18.40;99.90
52867;DHT22;38739;53.324;6.862;2023-09-12T04:34:56;18.30;99.90
52867;DHT22;38739;53.324;6.862;2023-09-12T04:37:22;18.30;99.90
52867;DHT22;38739;53.324;6.862;2023-09-12T04:39:48;18.20;99.90
52867;DHT22;38739;53.324;6.862;2023-09-12T04:42:14;18.20;99.90
52867;DHT22;38739;53.324;6.862;2023-09-12T04:44:41;18.20;99.90
52867;DHT22;38739;53.324;6.862;2023-09-12T04:47:07;18.20;99.90
52867;DHT22;38739;53.324;6.862;2023-09-12T04:49:33;18.10;99.90
52867;DHT22;38739;53.324;6.862;2023-09-12T04:51:59;18.10;99.90
52867;DHT22;38739;53.324;6.862;2023-09-12T04:54:25;18.00;99.90
52867;DHT22;38739;53.324;6.862;2023-09-12T04:56:50;18.00;99.90
52867;DHT22;38739;53.324;6.862;2023-09-12T04:59:16;18.00;99.90
52867;DHT22;38739;53.324;6.862;2023-09-12T05:01:42;17.90;99.90
52867;DHT22;38739;53.324;6.862;2023-09-12T05:04:08;17.90;99.90
52867;DHT22;38739;53.324;6.862;2023-09-12T05:06:35;17.90;99.90
52867;DHT22;38739;53.324;6.862;2023-09-12T05:09:01;17.90;99.90
52867;DHT22;38739;53.324;6.862;2023-09-12T05:11:27;17.90;99.90
52867;DHT22;38739;53.324;6.862;2023-09-12T05:13:52;17.80;99.90
52867;DHT22;38739;53.324;6.862;2023-09-12T05:16:18;17.80;99.90
52867;DHT22;38739;53.324;6.862;2023-09-12T05:18:44;17.80;99.90
52867;DHT22;38739;53.324;6.862;2023-09-12T05:21:10;17.80;99.90
52867;DHT22;38739;53.324;6.862;2023-09-12T05:23:35;17.80;99.90
52867;DHT22;38739;53.324;6.862;2023-09-12T05:26:01;17.80;99.90
52867;DHT22;38739;53.324;6.862;2023-09-12T05:28:28;17.80;99.90
52867;DHT22;38739;53.324;6.862;2023-09-12T05:30:54;17.70;99.90
52867;DHT22;38739;53.324;6.862;2023-09-12T05:33:19;17.80;99.90
52867;DHT22;38739;53.324;6.862;2023-09-12T05:35:45;17.70;99.90
52867;DHT22;38739;53.324;6.862;2023-09-12T05:38:11;17.80;99.90
52867;DHT22;38739;53.324;6.862;2023-09-12T05:40:37;17.80;99.90
52867;DHT22;38739;53.324;6.862;2023-09-12T05:43:02;17.80;99.90
52867;DHT22;38739;53.324;6.862;2023-09-12T05:45:28;17.80;99.90
52867;DHT22;38739;53.324;6.862;2023-09-12T05:47:56;17.70;99.90
52867;DHT22;38739;53.324;6.862;2023-09-12T05:50:22;17.70;99.90
52867;DHT22;38739;53.324;6.862;2023-09-12T05:52:48;17.70;99.90
52867;DHT22;38739;53.324;6.862;2023-09-12T05:55:14;17.70;99.90
52867;DHT22;38739;53.324;6.862;2023-09-12T05:57:40;17.70;99.90
52867;DHT22;38739;53.324;6.862;2023-09-12T06:00:06;17.70;99.90
52867;DHT22;38739;53.324;6.862;2023-09-12T06:02:35;17.60;99.90
52867;DHT22;38739;53.324;6.862;2023-09-12T06:05:01;17.60;99.90
52867;DHT22;38739;53.324;6.862;2023-09-12T06:07:27;17.60;99.90
52867;DHT22;38739;53.324;6.862;2023-09-12T06:09:52;17.60;99.90
52867;DHT22;38739;53.324;6.862;2023-09-12T06:12:18;17.70;99.90
52867;DHT22;38739;53.324;6.862;2023-09-12T06:14:44;17.70;99.90
52867;DHT22;38739;53.324;6.862;2023-09-12T06:17:10;17.70;99.90
52867;DHT22;38739;53.324;6.862;2023-09-12T06:19:35;17.70;99.90
52867;DHT22;38739;53.324;6.862;2023-09-12T06:22:01;17.70;99.90
52867;DHT22;38739;53.324;6.862;2023-09-12T06:24:27;17.70;99.90
52867;DHT22;38739;53.324;6.862;2023-09-12T06:26:53;17.80;99.90
52867;DHT22;38739;53.324;6.862;2023-09-12T06:29:19;17.80;99.90
52867;DHT22;38739;53.324;6.862;2023-09-12T06:31:44;17.80;99.90
52867;DHT22;38739;53.324;6.862;2023-09-12T06:34:10;17.80;99.90
52867;DHT22;38739;53.324;6.862;2023-09-12T06:36:36;17.90;99.90
52867;DHT22;38739;53.324;6.862;2023-09-12T06:39:03;17.90;99.90
52867;DHT22;38739;53.324;6.862;2023-09-12T06:41:31;18.00;99.90
52867;DHT22;38739;53.324;6.862;2023-09-12T06:43:56;18.00;99.90
52867;DHT22;38739;53.324;6.862;2023-09-12T06:46:24;18.00;99.90
52867;DHT22;38739;53.324;6.862;2023-09-12T06:48:50;18.10;99.90
52867;DHT22;38739;53.324;6.862;2023-09-12T06:51:16;18.10;99.90
52867;DHT22;38739;53.324;6.862;2023-09-12T06:53:42;18.20;99.90
52867;DHT22;38739;53.324;6.862;2023-09-12T06:56:08;18.30;99.90
52867;DHT22;38739;53.324;6.862;2023-09-12T06:58:34;18.40;99.90
52867;DHT22;38739;53.324;6.862;2023-09-12T07:01:06;18.40;99.90
52867;DHT22;38739;53.324;6.862;2023-09-12T07:03:33;18.40;99.90
52867;DHT22;38739;53.324;6.862;2023-09-12T07:05:59;18.40;99.90
52867;DHT22;38739;53.324;6.862;2023-09-12T07:08:25;18.40;99.90
52867;DHT22;38739;53.324;6.862;2023-09-12T07:10:50;18.50;99.90
52867;DHT22;38739;53.324;6.862;2023-09-12T07:13:16;18.50;99.90
52867;DHT22;38739;53.324;6.862;2023-09-12T07:15:42;18.60;99.90
52867;DHT22;38739;53.324;6.862;2023-09-12T07:18:08;18.70;99.90
52867;DHT22;38739;53.324;6.862;2023-09-12T07:20:34;18.70;99.90
52867;DHT22;38739;53.324;6.862;2023-09-12T07:23:00;18.80;99.90
52867;DHT22;38739;53.324;6.862;2023-09-12T07:25:25;18.80;99.90
52867;DHT22;38739;53.324;6.862;2023-09-12T07:27:52;18.80;99.90
52867;DHT22;38739;53.324;6.862;2023-09-12T07:30:18;18.80;99.90
52867;DHT22;38739;53.324;6.862;2023-09-12T07:32:44;18.80;99.90
52867;DHT22;38739;53.324;6.862;2023-09-12T07:35:09;18.80;99.90
52867;DHT22;38739;53.324;6.862;2023-09-12T07:37:35;18.80;99.90
52867;DHT22;38739;53.324;6.862;2023-09-12T07:40:01;18.80;99.90
52867;DHT22;38739;53.324;6.862;2023-09-12T07:42:31;18.80;99.90
52867;DHT22;38739;53.324;6.862;2023-09-12T07:44:58;18.80;99.90
52867;DHT22;38739;53.324;6.862;2023-09-12T07:47:23;18.90;99.90
52867;DHT22;38739;53.324;6.862;2023-09-12T07:49:55;19.10;99.90
52867;DHT22;38739;53.324;6.862;2023-09-12T07:52:21;19.10;99.90
52867;DHT22;38739;53.324;6.862;2023-09-12T07:54:49;19.20;99.90
52867;DHT22;38739;53.324;6.862;2023-09-12T07:57:15;19.30;99.90
52867;DHT22;38739;53.324;6.862;2023-09-12T07:59:40;19.40;99.90
52867;DHT22;38739;53.324;6.862;2023-09-12T08:02:06;19.50;99.90
52867;DHT22;38739;53.324;6.862;2023-09-12T08:04:32;19.60;99.90
52867;DHT22;38739;53.324;6.862;2023-09-12T08:06:57;19.70;99.90
52867;DHT22;38739;53.324;6.862;2023-09-12T08:09:23;19.80;99.90
52867;DHT22;38739;53.324;6.862;2023-09-12T08:11:49;19.90;99.90
52867;DHT22;38739;53.324;6.862;2023-09-12T08:14:14;20.00;99.90
52867;DHT22;38739;53.324;6.862;2023-09-12T08:16:40;20.10;99.90
52867;DHT22;38739;53.324;6.862;2023-09-12T08:19:06;20.10;99.90
52867;DHT22;38739;53.324;6.862;2023-09-12T08:21:31;20.10;99.90
52867;DHT22;38739;53.324;6.862;2023-09-12T08:23:57;20.10;99.90
52867;DHT22;38739;53.324;6.862;2023-09-12T08:26:23;20.20;99.90
52867;DHT22;38739;53.324;6.862;2023-09-12T08:28:48;20.20;99.90
52867;DHT22;38739;53.324;6.862;2023-09-12T08:31:14;20.30;99.90
52867;DHT22;38739;53.324;6.862;2023-09-12T08:33:40;20.30;99.90
52867;DHT22;38739;53.324;6.862;2023-09-12T08:36:05;20.40;99.90
52867;DHT22;38739;53.324;6.862;2023-09-12T08:38:31;20.40;99.90
52867;DHT22;38739;53.324;6.862;2023-09-12T08:40:57;20.50;99.90
52867;DHT22;38739;53.324;6.862;2023-09-12T08:43:22;20.70;99.90
52867;DHT22;38739;53.324;6.862;2023-09-12T08:45:48;20.80;99.90
52867;DHT22;38739;53.324;6.862;2023-09-12T08:48:15;21.00;99.90
52867;DHT22;38739;53.324;6.862;2023-09-12T08:50:42;21.10;99.90
52867;DHT22;38739;53.324;6.862;2023-09-12T08:53:07;21.10;99.90
52867;DHT22;38739;53.324;6.862;2023-09-12T08:55:34;21.00;99.90
52867;DHT22;38739;53.324;6.862;2023-09-12T08:58:04;21.00;99.90
52867;DHT22;38739;53.324;6.862;2023-09-12T09:00:30;21.00;99.90
52867;DHT22;38739;53.324;6.862;2023-09-12T09:02:56;21.00;99.90
52867;DHT22;38739;53.324;6.862;2023-09-12T09:05:22;21.00;99.90
52867;DHT22;38739;53.324;6.862;2023-09-12T09:07:49;21.00;99.90
52867;DHT22;38739;53.324;6.862;2023-09-12T09:10:17;21.00;99.90
52867;DHT22;38739;53.324;6.862;2023-09-12T09:12:44;20.90;99.90
52867;DHT22;38739;53.324;6.862;2023-09-12T09:15:43;20.90;99.90
52867;DHT22;38739;53.324;6.862;2023-09-12T09:18:09;20.90;99.90
52867;DHT22;38739;53.324;6.862;2023-09-12T09:20:37;20.90;99.90
52867;DHT22;38739;53.324;6.862;2023-09-12T09:23:05;20.90;99.90
52867;DHT22;38739;53.324;6.862;2023-09-12T09:25:32;21.00;99.90
52867;DHT22;38739;53.324;6.862;2023-09-12T09:27:58;21.10;99.90
52867;DHT22;38739;53.324;6.862;2023-09-12T09:30:44;21.20;99.90
52867;DHT22;38739;53.324;6.862;2023-09-12T09:33:11;21.30;99.90
52867;DHT22;38739;53.324;6.862;2023-09-12T09:35:38;21.50;99.90
52867;DHT22;38739;53.324;6.862;2023-09-12T09:38:06;21.50;99.90
52867;DHT22;38739;53.324;6.862;2023-09-12T09:40:33;21.60;99.90
52867;DHT22;38739;53.324;6.862;2023-09-12T09:43:00;21.60;99.90
52867;DHT22;38739;53.324;6.862;2023-09-12T09:45:28;21.70;99.90
52867;DHT22;38739;53.324;6.862;2023-09-12T09:48:07;21.80;99.90
52867;DHT22;38739;53.324;6.862;2023-09-12T09:50:36;21.80;99.90
52867;DHT22;38739;53.324;6.862;2023-09-12T09:53:04;21.90;99.90
52867;DHT22;38739;53.324;6.862;2023-09-12T09:55:34;21.90;99.90
52867;DHT22;38739;53.324;6.862;2023-09-12T09:57:59;22.00;99.90
52867;DHT22;38739;53.324;6.862;2023-09-12T10:00:25;21.90;99.90
52867;DHT22;38739;53.324;6.862;2023-09-12T10:02:53;22.00;99.90
52867;DHT22;38739;53.324;6.862;2023-09-12T10:05:21;22.10;99.90
52867;DHT22;38739;53.324;6.862;2023-09-12T10:07:48;22.20;99.90
52867;DHT22;38739;53.324;6.862;2023-09-12T10:10:18;22.40;99.90
52867;DHT22;38739;53.324;6.862;2023-09-12T10:12:55;23.00;99.90
52867;DHT22;38739;53.324;6.862;2023-09-12T10:15:22;23.30;99.90
52867;DHT22;38739;53.324;6.862;2023-09-12T10:17:57;23.60;99.90
52867;DHT22;38739;53.324;6.862;2023-09-12T10:20:59;24.00;99.90
52867;DHT22;38739;53.324;6.862;2023-09-12T10:23:27;24.30;99.90
52867;DHT22;38739;53.324;6.862;2023-09-12T10:25:57;24.60;99.90
52867;DHT22;38739;53.324;6.862;2023-09-12T10:28:25;24.70;99.90
52867;DHT22;38739;53.324;6.862;2023-09-12T10:30:52;24.90;99.90
52867;DHT22;38739;53.324;6.862;2023-09-12T10:33:18;25.00;99.90
52867;DHT22;38739;53.324;6.862;2023-09-12T10:35:44;25.00;99.90
52867;DHT22;38739;53.324;6.862;2023-09-12T10:38:12;25.10;99.90
52867;DHT22;38739;53.324;6.862;2023-09-12T10:40:40;25.00;99.90
52867;DHT22;38739;53.324;6.862;2023-09-12T10:43:09;24.90;99.90
52867;DHT22;38739;53.324;6.862;2023-09-12T10:45:36;24.90;99.90
52867;DHT22;38739;53.324;6.862;2023-09-12T10:48:03;24.90;99.90
52867;DHT22;38739;53.324;6.862;2023-09-12T10:50:29;24.90;99.90
52867;DHT22;38739;53.324;6.862;2023-09-12T10:52:58;24.90;99.90
52867;DHT22;38739;53.324;6.862;2023-09-12T10:55:33;25.00;99.90
52867;DHT22;38739;53.324;6.862;2023-09-12T10:58:07;25.20;99.90
52867;DHT22;38739;53.324;6.862;2023-09-12T11:00:33;25.20;99.90
52867;DHT22;38739;53.324;6.862;2023-09-12T11:05:54;24.90;99.90
52867;DHT22;38739;53.324;6.862;2023-09-12T11:08:20;24.80;99.90
52867;DHT22;38739;53.324;6.862;2023-09-12T11:11:17;24.80;99.90
52867;DHT22;38739;53.324;6.862;2023-09-12T11:13:45;24.80;99.90
52867;DHT22;38739;53.324;6.862;2023-09-12T11:16:15;24.90;99.90
52867;DHT22;38739;53.324;6.862;2023-09-12T11:21:45;24.90;99.90
52867;DHT22;38739;53.324;6.862;2023-09-12T11:24:11;25.00;99.90
52867;DHT22;38739;53.324;6.862;2023-09-12T11:26:59;25.10;99.90
52867;DHT22;38739;53.324;6.862;2023-09-12T11:29:34;25.10;99.90
52867;DHT22;38739;53.324;6.862;2023-09-12T11:32:02;25.20;99.90
52867;DHT22;38739;53.324;6.862;2023-09-12T11:34:37;25.30;99.90
52867;DHT22;38739;53.324;6.862;2023-09-12T11:37:03;25.50;99.90
52867;DHT22;38739;53.324;6.862;2023-09-12T11:39:35;25.50;99.90
52867;DHT22;38739;53.324;6.862;2023-09-12T11:42:02;25.50;99.90
52867;DHT22;38739;53.324;6.862;2023-09-12T11:44:29;25.60;99.90
52867;DHT22;38739;53.324;6.862;2023-09-12T11:46:58;25.60;99.90
52867;DHT22;38739;53.324;6.862;2023-09-12T11:49:38;25.40;99.90
52867;DHT22;38739;53.324;6.862;2023-09-12T11:52:09;25.40;99.90
52867;DHT22;38739;53.324;6.862;2023-09-12T11:54:35;25.40;99.90
52867;DHT22;38739;53.324;6.862;2023-09-12T11:57:02;25.50;99.90
52867;DHT22;38739;53.324;6.862;2023-09-12T11:59:29;25.70;99.90
52867;DHT22;38739;53.324;6.862;2023-09-12T12:01:55;26.20;99.90
52867;DHT22;38739;53.324;6.862;2023-09-12T12:04:24;26.80;99.90
52867;DHT22;38739;53.324;6.862;2023-09-12T12:06:51;26.80;99.90
52867;DHT22;38739;53.324;6.862;2023-09-12T12:09:18;26.90;99.90
52867;DHT22;38739;53.324;6.862;2023-09-12T12:11:45;27.10;99.90
52867;DHT22;38739;53.324;6.862;2023-09-12T12:14:16;27.30;99.90
52867;DHT22;38739;53.324;6.862;2023-09-12T12:16:43;27.80;99.90
52867;DHT22;38739;53.324;6.862;2023-09-12T12:19:13;28.40;99.90
52867;DHT22;38739;53.324;6.862;2023-09-12T12:21:40;29.40;99.90
52867;DHT22;38739;53.324;6.862;2023-09-12T12:24:14;30.40;99.90
52867;DHT22;38739;53.324;6.862;2023-09-12T12:26:44;31.00;99.90
52867;DHT22;38739;53.324;6.862;2023-09-12T12:29:11;30.90;99.70
52867;DHT22;38739;53.324;6.862;2023-09-12T12:31:37;30.70;99.90
52867;DHT22;38739;53.324;6.862;2023-09-12T12:34:05;30.60;99.90
52867;DHT22;38739;53.324;6.862;2023-09-12T12:36:31;30.40;99.90
52867;DHT22;38739;53.324;6.862;2023-09-12T12:38:57;30.00;99.90
52867;DHT22;38739;53.324;6.862;2023-09-12T12:41:28;29.80;99.90
52867;DHT22;38739;53.324;6.862;2023-09-12T12:43:56;30.30;99.90
52867;DHT22;38739;53.324;6.862;2023-09-12T12:46:24;30.00;99.90
52867;DHT22;38739;53.324;6.862;2023-09-12T12:48:50;29.80;99.90
52867;DHT22;38739;53.324;6.862;2023-09-12T12:51:25;29.60;99.90
52867;DHT22;38739;53.324;6.862;2023-09-12T12:54:02;29.30;99.90
52867;DHT22;38739;53.324;6.862;2023-09-12T12:56:29;29.00;99.90
52867;DHT22;38739;53.324;6.862;2023-09-12T12:58:57;28.60;99.90
52867;DHT22;38739;53.324;6.862;2023-09-12T13:01:24;27.90;99.90
52867;DHT22;38739;53.324;6.862;2023-09-12T13:03:50;27.20;99.90
52867;DHT22;38739;53.324;6.862;2023-09-12T13:06:17;26.70;99.90
52867;DHT22;38739;53.324;6.862;2023-09-12T13:08:45;26.10;99.90
52867;DHT22;38739;53.324;6.862;2023-09-12T13:11:13;25.60;99.90
52867;DHT22;38739;53.324;6.862;2023-09-12T13:13:39;25.20;99.90
52867;DHT22;38739;53.324;6.862;2023-09-12T13:16:07;24.70;99.90
52867;DHT22;38739;53.324;6.862;2023-09-12T13:18:35;24.20;99.90
52867;DHT22;38739;53.324;6.862;2023-09-12T13:21:01;23.60;99.90
52867;DHT22;38739;53.324;6.862;2023-09-12T13:23:27;23.20;99.90
52867;DHT22;38739;53.324;6.862;2023-09-12T13:25:53;22.90;99.90
52867;DHT22;38739;53.324;6.862;2023-09-12T13:28:20;22.50;99.90
52867;DHT22;38739;53.324;6.862;2023-09-12T13:30:45;22.30;99.90
52867;DHT22;38739;53.324;6.862;2023-09-12T13:33:12;22.00;99.90
52867;DHT22;38739;53.324;6.862;2023-09-12T13:35:41;21.90;99.90
52867;DHT22;38739;53.324;6.862;2023-09-12T13:38:07;21.80;99.90
52867;DHT22;38739;53.324;6.862;2023-09-12T13:40:41;21.60;99.90
52867;DHT22;38739;53.324;6.862;2023-09-12T13:43:08;21.50;99.90
52867;DHT22;38739;53.324;6.862;2023-09-12T13:45:34;21.40;99.90
52867;DHT22;38739;53.324;6.862;2023-09-12T13:48:00;21.30;99.90
52867;DHT22;38739;53.324;6.862;2023-09-12T13:50:29;21.20;99.90
52867;DHT22;38739;53.324;6.862;2023-09-12T13:52:57;21.10;99.90
52867;DHT22;38739;53.324;6.862;2023-09-12T13:55:23;21.00;99.90
52867;DHT22;38739;53.324;6.862;2023-09-12T13:57:48;21.00;99.90
52867;DHT22;38739;53.324;6.862;2023-09-12T14:00:14;20.90;99.90
52867;DHT22;38739;53.324;6.862;2023-09-12T14:02:40;20.90;99.90
52867;DHT22;38739;53.324;6.862;2023-09-12T14:05:06;20.90;99.90
52867;DHT22;38739;53.324;6.862;2023-09-12T14:07:32;20.90;99.90
52867;DHT22;38739;53.324;6.862;2023-09-12T14:09:57;20.90;99.90
52867;DHT22;38739;53.324;6.862;2023-09-12T14:12:24;20.90;99.90
52867;DHT22;38739;53.324;6.862;2023-09-12T14:14:51;21.20;99.90
52867;DHT22;38739;53.324;6.862;2023-09-12T14:17:17;21.70;99.90
52867;DHT22;38739;53.324;6.862;2023-09-12T14:19:43;21.90;99.90
52867;DHT22;38739;53.324;6.862;2023-09-12T14:22:09;22.00;99.90
52867;DHT22;38739;53.324;6.862;2023-09-12T14:24:34;21.90;99.90
52867;DHT22;38739;53.324;6.862;2023-09-12T14:27:00;21.90;99.90
52867;DHT22;38739;53.324;6.862;2023-09-12T14:29:26;21.90;99.90
52867;DHT22;38739;53.324;6.862;2023-09-12T14:31:55;22.00;99.90
52867;DHT22;38739;53.324;6.862;2023-09-12T14:34:27;22.00;99.90
52867;DHT22;38739;53.324;6.862;2023-09-12T14:36:56;22.00;99.90
52867;DHT22;38739;53.324;6.862;2023-09-12T14:39:23;22.10;99.90
52867;DHT22;38739;53.324;6.862;2023-09-12T14:41:49;22.80;99.90
52867;DHT22;38739;53.324;6.862;2023-09-12T14:44:21;24.10;99.90
52867;DHT22;38739;53.324;6.862;2023-09-12T14:46:47;25.30;99.90
52867;DHT22;38739;53.324;6.862;2023-09-12T14:49:13;26.30;99.90
52867;DHT22;38739;53.324;6.862;2023-09-12T14:51:38;26.90;99.90
52867;DHT22;38739;53.324;6.862;2023-09-12T14:54:05;26.80;99.90
52867;DHT22;38739;53.324;6.862;2023-09-12T14:56:31;26.80;99.90
52867;DHT22;38739;53.324;6.862;2023-09-12T14:58:57;26.60;99.90
52867;DHT22;38739;53.324;6.862;2023-09-12T15:01:23;26.50;99.90
52867;DHT22;38739;53.324;6.862;2023-09-12T15:03:50;26.70;99.90
52867;DHT22;38739;53.324;6.862;2023-09-12T15:06:16;27.00;99.90
52867;DHT22;38739;53.324;6.862;2023-09-12T15:08:42;27.20;99.90
52867;DHT22;38739;53.324;6.862;2023-09-12T15:11:08;27.60;99.90
52867;DHT22;38739;53.324;6.862;2023-09-12T15:13:34;28.20;99.90
52867;DHT22;38739;53.324;6.862;2023-09-12T15:16:00;28.70;99.90
52867;DHT22;38739;53.324;6.862;2023-09-12T15:18:26;28.40;99.90
52867;DHT22;38739;53.324;6.862;2023-09-12T15:20:52;27.70;99.90
52867;DHT22;38739;53.324;6.862;2023-09-12T15:23:19;27.20;99.90
52867;DHT22;38739;53.324;6.862;2023-09-12T15:25:51;26.60;99.90
52867;DHT22;38739;53.324;6.862;2023-09-12T15:28:17;26.00;99.90
52867;DHT22;38739;53.324;6.862;2023-09-12T15:30:43;25.50;99.90
52867;DHT22;38739;53.324;6.862;2023-09-12T15:33:09;25.10;99.90
52867;DHT22;38739;53.324;6.862;2023-09-12T15:35:35;24.70;99.90
52867;DHT22;38739;53.324;6.862;2023-09-12T15:38:01;24.30;99.90
52867;DHT22;38739;53.324;6.862;2023-09-12T15:40:27;24.10;99.90
52867;DHT22;38739;53.324;6.862;2023-09-12T15:42:53;23.80;99.90
52867;DHT22;38739;53.324;6.862;2023-09-12T15:45:19;23.60;99.90
52867;DHT22;38739;53.324;6.862;2023-09-12T15:47:46;23.70;99.90
52867;DHT22;38739;53.324;6.862;2023-09-12T15:50:12;23.90;99.90
52867;DHT22;38739;53.324;6.862;2023-09-12T15:52:38;23.70;99.90
52867;DHT22;38739;53.324;6.862;2023-09-12T15:55:05;23.70;99.90
52867;DHT22;38739;53.324;6.862;2023-09-12T15:57:31;23.60;99.90
52867;DHT22;38739;53.324;6.862;2023-09-12T15:59:57;23.50;99.90
52867;DHT22;38739;53.324;6.862;2023-09-12T16:02:23;23.90;99.90
52867;DHT22;38739;53.324;6.862;2023-09-12T16:04:49;24.30;99.90
52867;DHT22;38739;53.324;6.862;2023-09-12T16:07:14;24.50;99.90